createdAt,value
2022-10-01T00:02:40.412Z,88409.69
2022-10-01T00:05:24.963Z,88414.41
2022-10-01T00:08:09.783Z,88421.38
2022-10-01T00:10:54.587Z,88419.31
2022-10-01T00:13:39.302Z,88411.81
2022-10-01T00:16:24.216Z,88416.50
2022-10-01T00:19:08.909Z,88430.38
2022-10-01T00:21:53.763Z,88421.47
2022-10-01T00:24:38.546Z,88413.66
2022-10-01T00:27:23.320Z,88410.88
2022-10-01T00:30:08.114Z,88405.59
2022-10-01T00:32:52.963Z,88403.31
2022-10-01T00:35:37.800Z,88402.44
2022-10-01T00:38:22.476Z,88395.66
2022-10-01T00:41:07.363Z,88401.19
2022-10-01T00:43:52.164Z,88405.69
2022-10-01T00:46:36.938Z,88408.22
2022-10-01T00:49:21.555Z,88413.63
2022-10-01T00:52:06.367Z,88419.41
2022-10-01T00:54:50.976Z,88420.97
2022-10-01T00:57:35.907Z,88429.19
2022-10-01T01:00:20.735Z,88427.66
2022-10-01T01:03:05.437Z,88429.25
2022-10-01T01:05:50.257Z,88438.44
2022-10-01T01:08:35.080Z,88431.16
2022-10-01T01:11:19.899Z,88431.31
2022-10-01T01:14:04.567Z,88430.25
2022-10-01T01:16:49.350Z,88423.25
2022-10-01T01:19:33.989Z,88418.56
2022-10-01T01:22:18.848Z,88431.91
2022-10-01T01:25:03.614Z,88441.13
2022-10-01T01:27:48.424Z,88443.59
2022-10-01T01:30:33.031Z,88438.72
2022-10-01T01:33:17.836Z,88442.88
2022-10-01T01:36:02.617Z,88452.88
2022-10-01T01:38:47.407Z,88458.78
2022-10-01T01:41:32.572Z,88456.00
2022-10-01T01:44:17.536Z,88453.53
2022-10-01T01:47:02.352Z,88456.56
2022-10-01T01:49:47.037Z,88460.38
2022-10-01T01:52:31.834Z,88458.78
2022-10-01T01:55:16.501Z,88460.38
2022-10-01T01:58:01.302Z,88474.28
2022-10-01T02:00:46.033Z,88473.59
2022-10-01T02:03:30.789Z,88473.09
2022-10-01T02:06:15.645Z,88468.78
2022-10-01T02:09:00.247Z,88470.84
2022-10-01T02:11:45.125Z,88466.38
2022-10-01T02:14:29.802Z,88466.53
2022-10-01T02:17:14.599Z,88462.03
2022-10-01T02:19:59.312Z,88460.63
2022-10-01T02:22:44.002Z,88468.97
2022-10-01T02:25:28.704Z,88473.84
2022-10-01T02:28:13.544Z,88456.81
2022-10-01T02:30:58.236Z,88461.34
2022-10-01T02:33:43.072Z,88452.63
2022-10-01T02:36:27.848Z,88446.28
2022-10-01T02:39:12.573Z,88439.03
2022-10-01T02:41:57.389Z,88434.50
2022-10-01T02:44:42.164Z,88446.38
2022-10-01T02:47:26.876Z,88443.56
2022-10-01T02:50:11.585Z,88438.13
2022-10-01T02:52:56.261Z,88439.09
2022-10-01T02:55:41.083Z,88443.25
2022-10-01T02:58:25.807Z,88447.34
2022-10-01T03:01:10.529Z,88450.28
2022-10-01T03:03:55.408Z,88457.72
2022-10-01T03:06:40.201Z,88455.75
2022-10-01T03:09:25.011Z,88471.81
2022-10-01T03:12:09.942Z,88471.75
2022-10-01T03:14:54.813Z,88467.22
2022-10-01T03:17:39.624Z,88467.06
2022-10-01T03:20:24.271Z,88476.25
2022-10-01T03:23:08.965Z,88482.41
2022-10-01T03:25:53.725Z,88482.09
2022-10-01T03:28:38.458Z,88475.69
2022-10-01T03:31:23.188Z,88477.00
2022-10-01T03:34:07.996Z,88475.41
2022-10-01T03:36:52.788Z,88465.06
2022-10-01T03:39:37.489Z,88469.69
2022-10-01T03:42:22.493Z,88466.81
2022-10-01T03:45:07.268Z,88463.63
2022-10-01T03:47:52.140Z,88460.88
2022-10-01T03:50:36.791Z,88473.69
2022-10-01T03:53:21.659Z,88470.41
2022-10-01T03:56:06.500Z,88475.19
2022-10-01T03:58:51.204Z,88469.81
2022-10-01T04:01:36.321Z,88472.03
2022-10-01T04:04:21.688Z,88469.00
2022-10-01T04:07:06.695Z,88478.00
2022-10-01T04:09:51.383Z,88471.59
2022-10-01T04:12:36.139Z,88472.03
2022-10-01T04:15:20.745Z,88473.78
2022-10-01T04:18:05.465Z,88472.78
2022-10-01T04:20:50.240Z,88477.47
2022-10-01T04:23:34.933Z,88474.69
2022-10-01T04:26:19.596Z,88479.81
2022-10-01T04:29:04.326Z,88477.13
2022-10-01T04:31:49.079Z,88471.72
2022-10-01T04:34:33.810Z,88476.03
2022-10-01T04:37:18.668Z,88475.50
2022-10-01T04:40:03.437Z,88476.25
2022-10-01T04:42:48.247Z,88474.94
2022-10-01T04:45:33.028Z,88479.50
2022-10-01T04:48:17.821Z,88474.69
2022-10-01T04:51:02.576Z,88468.50
2022-10-01T04:53:47.246Z,88483.47
2022-10-01T04:56:31.911Z,88480.97
2022-10-01T04:59:16.742Z,88482.13
2022-10-01T05:02:01.625Z,88478.53
2022-10-01T05:04:46.388Z,88485.22
2022-10-01T05:07:31.150Z,88487.13
2022-10-01T05:10:15.829Z,88493.53
2022-10-01T05:13:00.808Z,88497.03
2022-10-01T05:15:45.441Z,88501.03
2022-10-01T05:18:30.397Z,88497.41
2022-10-01T05:21:15.163Z,88491.91
2022-10-01T05:24:00.003Z,88498.00
2022-10-01T05:26:44.735Z,88501.09
2022-10-01T05:29:29.543Z,88497.09
2022-10-01T05:32:14.411Z,88506.50
2022-10-01T05:34:59.272Z,88507.81
2022-10-01T05:37:44.074Z,88520.91
2022-10-01T05:40:28.833Z,88538.91
2022-10-01T05:43:13.486Z,88532.03
2022-10-01T05:45:58.186Z,88550.53
2022-10-01T05:48:43.002Z,88543.81
2022-10-01T05:51:27.805Z,88545.00
2022-10-01T05:54:12.825Z,88545.63
2022-10-01T05:56:57.385Z,88548.19
2022-10-01T05:59:42.216Z,88550.69
2022-10-01T06:02:26.894Z,88556.47
2022-10-01T06:05:11.695Z,88561.78
2022-10-01T06:07:56.659Z,88565.06
2022-10-01T06:10:41.341Z,88573.38
2022-10-01T06:13:26.144Z,88571.66
2022-10-01T06:16:10.823Z,88583.91
2022-10-01T06:18:55.591Z,88576.38
2022-10-01T06:21:40.235Z,88598.78
2022-10-01T06:24:24.929Z,88597.47
2022-10-01T06:27:12.657Z,88606.00
2022-10-01T06:29:57.395Z,88611.72
2022-10-01T06:32:42.196Z,88605.88
2022-10-01T06:35:27.014Z,88608.38
2022-10-01T06:38:11.710Z,88608.44
2022-10-01T06:40:56.377Z,88618.56
2022-10-01T06:43:41.238Z,88627.06
2022-10-01T06:46:25.803Z,88627.97
2022-10-01T06:49:10.468Z,88628.56
2022-10-01T06:51:55.149Z,88638.97
2022-10-01T06:54:39.805Z,88650.41
2022-10-01T06:57:24.568Z,88645.50
2022-10-01T07:00:09.314Z,88660.06
2022-10-01T07:02:54.064Z,88663.53
2022-10-01T07:05:38.766Z,88668.34
2022-10-01T07:08:23.496Z,88671.16
2022-10-01T07:11:08.385Z,88685.06
2022-10-01T07:13:54.695Z,88682.84
2022-10-01T07:16:39.982Z,88689.19
2022-10-01T07:19:24.901Z,88701.81
2022-10-01T07:22:10.230Z,88709.13
2022-10-01T07:24:54.941Z,88715.84
2022-10-01T07:27:39.761Z,88716.44
2022-10-01T07:30:24.662Z,88721.28
2022-10-01T07:33:09.888Z,88726.88
2022-10-01T07:35:54.599Z,88725.56
2022-10-01T07:38:39.443Z,88731.97
2022-10-01T07:41:24.169Z,88724.16
2022-10-01T07:44:08.992Z,88731.38
2022-10-01T07:46:53.597Z,88740.19
2022-10-01T07:49:38.363Z,88744.09
2022-10-01T07:52:23.142Z,88740.88
2022-10-01T07:55:07.879Z,88742.75
2022-10-01T07:57:52.663Z,88735.78
2022-10-01T08:00:37.381Z,88738.56
2022-10-01T08:03:22.172Z,88729.84
2022-10-01T08:06:06.857Z,88723.50
2022-10-01T08:08:51.606Z,88729.09
2022-10-01T08:11:36.756Z,88727.75
2022-10-01T08:14:22.173Z,88727.81
2022-10-01T08:17:07.047Z,88731.72
2022-10-01T08:19:51.780Z,88735.34
2022-10-01T08:22:41.683Z,88745.00
2022-10-01T08:25:27.038Z,88753.53
2022-10-01T08:28:11.784Z,88747.69
2022-10-01T08:30:56.634Z,88739.41
2022-10-01T08:33:41.319Z,88747.03
2022-10-01T08:36:26.119Z,88750.22
2022-10-01T08:39:10.849Z,88748.25
2022-10-01T08:41:55.576Z,88752.69
2022-10-01T08:44:41.254Z,88749.31
2022-10-01T08:47:26.557Z,88761.56
2022-10-01T08:50:11.399Z,88763.69
2022-10-01T08:52:56.425Z,88761.31
2022-10-01T08:55:41.816Z,88754.81
2022-10-01T08:58:26.508Z,88760.44
2022-10-01T09:01:11.492Z,88754.69
2022-10-01T09:03:56.207Z,88752.31
2022-10-01T09:06:41.096Z,88749.91
2022-10-01T09:09:25.800Z,88752.22
2022-10-01T09:12:10.546Z,88750.00
2022-10-01T09:14:55.292Z,88749.38
2022-10-01T09:17:40.061Z,88755.69
2022-10-01T09:20:24.908Z,88767.09
2022-10-01T09:23:09.649Z,88762.69
2022-10-01T09:25:54.351Z,88760.53
2022-10-01T09:28:39.198Z,88774.19
2022-10-01T09:31:23.967Z,88772.41
2022-10-01T09:34:08.608Z,88768.06
2022-10-01T09:36:53.457Z,88769.53
2022-10-01T09:39:38.321Z,88772.13
2022-10-01T09:42:23.046Z,88769.94
2022-10-01T09:45:07.903Z,88767.03
2022-10-01T09:47:52.511Z,88763.03
2022-10-01T09:50:37.293Z,88759.72
2022-10-01T09:53:22.343Z,88758.38
2022-10-01T09:56:07.310Z,88749.72
2022-10-01T09:58:52.083Z,88759.34
2022-10-01T10:01:37.465Z,88765.78
2022-10-01T10:04:22.817Z,88761.75
2022-10-01T10:07:07.566Z,88746.78
2022-10-01T10:09:52.313Z,88754.81
2022-10-01T10:12:37.029Z,88762.13
2022-10-01T10:15:21.866Z,88752.25
2022-10-01T10:18:06.664Z,88764.81
2022-10-01T10:20:51.406Z,88758.56
2022-10-01T10:23:36.099Z,88764.13
2022-10-01T10:26:20.938Z,88766.31
2022-10-01T10:29:05.616Z,88760.41
2022-10-01T10:31:50.456Z,88762.66
2022-10-01T10:34:35.352Z,88751.31
2022-10-01T10:37:20.560Z,88762.25
2022-10-01T10:40:05.242Z,88764.28
2022-10-01T10:42:51.126Z,88770.22
2022-10-01T10:45:35.853Z,88768.94
2022-10-01T10:48:20.617Z,88779.94
2022-10-01T10:51:05.389Z,88788.06
2022-10-01T10:53:50.095Z,88780.25
2022-10-01T10:56:34.965Z,88793.41
2022-10-01T10:59:20.134Z,88791.31
2022-10-01T11:02:04.902Z,88771.84
2022-10-01T11:04:50.187Z,88778.84
2022-10-01T11:07:34.926Z,88794.00
2022-10-01T11:10:19.669Z,88774.34
2022-10-01T11:13:04.389Z,88762.47
2022-10-01T11:15:49.261Z,88750.22
2022-10-01T11:18:34.405Z,88762.38
2022-10-01T11:21:19.175Z,88755.75
2022-10-01T11:24:03.904Z,88761.47
2022-10-01T11:26:51.680Z,88763.97
2022-10-01T11:29:37.971Z,88755.19
2022-10-01T11:32:22.793Z,88765.34
2022-10-01T11:35:07.555Z,88757.72
2022-10-01T11:37:52.280Z,88745.69
2022-10-01T11:40:36.951Z,88755.72
2022-10-01T11:43:21.716Z,88737.78
2022-10-01T11:46:06.519Z,88743.41
2022-10-01T11:48:51.327Z,88743.16
2022-10-01T11:51:36.135Z,88734.63
2022-10-01T11:54:21.093Z,88743.97
2022-10-01T11:57:05.760Z,88754.00
2022-10-01T11:59:50.728Z,88733.34
2022-10-01T12:02:35.409Z,88736.06
2022-10-01T12:05:20.416Z,88735.44
2022-10-01T12:08:05.157Z,88718.34
2022-10-01T12:10:49.863Z,88719.28
2022-10-01T12:13:34.572Z,88707.59
2022-10-01T12:16:19.460Z,88707.16
2022-10-01T12:19:04.309Z,88697.09
2022-10-01T12:21:48.906Z,88697.16
2022-10-01T12:24:33.687Z,88704.41
2022-10-01T12:27:18.467Z,88712.53
2022-10-01T12:30:03.386Z,88713.28
2022-10-01T12:32:48.083Z,88728.81
2022-10-01T12:35:32.962Z,88720.06
2022-10-01T12:38:17.815Z,88722.28
2022-10-01T12:41:02.616Z,88712.31
2022-10-01T12:43:47.599Z,88720.56
2022-10-01T12:46:32.470Z,88723.22
2022-10-01T12:49:17.631Z,88720.84
2022-10-01T12:52:02.258Z,88720.53
2022-10-01T12:54:47.090Z,88716.63
2022-10-01T12:57:31.816Z,88711.47
2022-10-01T13:00:16.627Z,88715.03
2022-10-01T13:03:01.275Z,88712.09
2022-10-01T13:05:46.065Z,88714.97
2022-10-01T13:08:30.863Z,88713.25
2022-10-01T13:11:15.649Z,88705.28
2022-10-01T13:14:00.409Z,88705.66
2022-10-01T13:16:45.158Z,88707.31
2022-10-01T13:19:29.949Z,88694.72
2022-10-01T13:22:14.684Z,88701.84
2022-10-01T13:24:59.391Z,88703.03
2022-10-01T13:27:44.198Z,88695.66
2022-10-01T13:30:28.926Z,88694.78
2022-10-01T13:33:13.484Z,88703.06
2022-10-01T13:35:58.287Z,88710.34
2022-10-01T13:38:42.958Z,88722.31
2022-10-01T13:41:27.745Z,88717.44
2022-10-01T13:44:12.538Z,88726.66
2022-10-01T13:46:57.236Z,88723.72
2022-10-01T13:49:42.013Z,88725.88
2022-10-01T13:52:26.756Z,88747.41
2022-10-01T13:55:11.576Z,88742.69
2022-10-01T13:57:56.288Z,88736.56
2022-10-01T14:00:41.139Z,88730.84
2022-10-01T14:03:25.821Z,88729.88
2022-10-01T14:06:10.770Z,88721.06
2022-10-01T14:08:55.765Z,88727.59
2022-10-01T14:11:40.512Z,88724.16
2022-10-01T14:14:25.263Z,88715.16
2022-10-01T14:17:10.040Z,88721.97
2022-10-01T14:19:54.812Z,88725.28
2022-10-01T14:22:39.615Z,88738.84
2022-10-01T14:25:24.326Z,88744.69
2022-10-01T14:28:08.988Z,88739.59
2022-10-01T14:30:53.938Z,88738.78
2022-10-01T14:33:38.535Z,88738.09
2022-10-01T14:36:23.228Z,88742.97
2022-10-01T14:39:07.827Z,88755.72
2022-10-01T14:41:52.553Z,88757.09
2022-10-01T14:44:37.366Z,88756.75
2022-10-01T14:47:22.080Z,88756.38
2022-10-01T14:50:06.809Z,88761.63
2022-10-01T14:52:51.590Z,88759.25
2022-10-01T14:55:36.362Z,88757.19
2022-10-01T14:58:20.969Z,88761.97
2022-10-01T15:01:05.630Z,88759.41
2022-10-01T15:03:50.375Z,88759.06
2022-10-01T15:06:35.251Z,88763.81
2022-10-01T15:09:20.498Z,88749.16
2022-10-01T15:12:05.066Z,88755.78
2022-10-01T15:14:49.842Z,88751.81
2022-10-01T15:17:34.618Z,88739.97
2022-10-01T15:20:19.505Z,88737.88
2022-10-01T15:23:04.308Z,88721.84
2022-10-01T15:25:49.129Z,88725.34
2022-10-01T15:28:33.774Z,88716.97
2022-10-01T15:31:18.629Z,88708.06
2022-10-01T15:34:03.419Z,88698.81
2022-10-01T15:36:48.158Z,88682.75
2022-10-01T15:39:32.850Z,88702.81
2022-10-01T15:42:17.532Z,88689.72
2022-10-01T15:45:02.335Z,88701.41
2022-10-01T15:47:47.050Z,88714.97
2022-10-01T15:50:31.942Z,88718.94
2022-10-01T15:53:16.745Z,88715.22
2022-10-01T15:56:01.604Z,88730.50
2022-10-01T15:58:46.382Z,88712.34
2022-10-01T16:01:31.134Z,88710.09
2022-10-01T16:04:15.823Z,88727.69
2022-10-01T16:07:00.545Z,88718.69
2022-10-01T16:09:45.218Z,88740.69
2022-10-01T16:12:29.901Z,88753.41
2022-10-01T16:15:14.816Z,88766.16
2022-10-01T16:17:59.574Z,88777.34
2022-10-01T16:20:48.989Z,88782.22
2022-10-01T16:23:35.275Z,88774.91
2022-10-01T16:26:20.180Z,88766.22
2022-10-01T16:29:04.789Z,88770.25
2022-10-01T16:31:49.559Z,88771.97
2022-10-01T16:34:34.372Z,88772.69
2022-10-01T16:37:18.947Z,88778.97
2022-10-01T16:40:03.680Z,88773.75
2022-10-01T16:42:48.473Z,88780.06
2022-10-01T16:45:33.262Z,88782.84
2022-10-01T16:48:17.983Z,88792.25
2022-10-01T16:51:02.769Z,88768.69
2022-10-01T16:53:47.686Z,88773.94
2022-10-01T16:56:32.374Z,88762.59
2022-10-01T16:59:17.164Z,88769.19
2022-10-01T17:02:01.816Z,88775.81
2022-10-01T17:04:46.590Z,88805.47
2022-10-01T17:07:31.386Z,88816.91
2022-10-01T17:10:16.202Z,88819.63
2022-10-01T17:13:00.945Z,88861.38
2022-10-01T17:15:45.720Z,88855.84
2022-10-01T17:18:30.600Z,88857.91
2022-10-01T17:21:15.318Z,88864.25
2022-10-01T17:24:00.191Z,88887.97
2022-10-01T17:26:44.856Z,88869.00
2022-10-01T17:29:29.564Z,88891.97
2022-10-01T17:32:14.201Z,88878.44
2022-10-01T17:34:59.024Z,88894.34
2022-10-01T17:37:43.665Z,88909.16
2022-10-01T17:40:28.410Z,88891.97
2022-10-01T17:43:13.155Z,88896.13
2022-10-01T17:45:58.041Z,88879.41
2022-10-01T17:48:42.761Z,88879.81
2022-10-01T17:51:27.504Z,88883.81
2022-10-01T17:54:12.253Z,88897.25
2022-10-01T17:56:57.013Z,88892.41
2022-10-01T17:59:41.829Z,88889.28
2022-10-01T18:02:43.090Z,88903.38
2022-10-01T18:05:28.483Z,88900.06
2022-10-01T18:08:13.256Z,88893.97
2022-10-01T18:10:57.969Z,88917.53
2022-10-01T18:13:42.751Z,88872.34
2022-10-01T18:16:27.645Z,88905.63
2022-10-01T18:22:17.752Z,88863.63
2022-10-01T18:25:02.571Z,88881.59
2022-10-01T18:27:47.338Z,88849.38
2022-10-01T18:30:32.202Z,88844.84
2022-10-01T18:33:17.071Z,88870.09
2022-10-01T18:36:02.143Z,88882.63
2022-10-01T18:38:47.306Z,88872.34
2022-10-01T18:41:32.412Z,88874.84
2022-10-01T18:44:20.261Z,88890.31
2022-10-01T18:47:05.719Z,88878.91
2022-10-01T18:49:50.436Z,88882.69
2022-10-01T18:52:35.283Z,88874.34
2022-10-01T18:55:21.391Z,88869.97
2022-10-01T18:58:06.233Z,88875.44
2022-10-01T19:00:51.009Z,88889.78
2022-10-01T19:03:35.698Z,88900.94
2022-10-01T19:06:20.579Z,88901.38
2022-10-01T19:09:05.183Z,88913.59
2022-10-01T19:11:49.966Z,88925.28
2022-10-01T19:14:34.713Z,88928.22
2022-10-01T19:17:19.565Z,88942.50
2022-10-01T19:20:04.167Z,88958.69
2022-10-01T19:22:48.951Z,88956.94
2022-10-01T19:25:33.804Z,88949.09
2022-10-01T19:28:18.521Z,88938.81
2022-10-01T19:31:03.907Z,88938.69
2022-10-01T19:33:48.655Z,88930.19
2022-10-01T19:36:34.678Z,88931.75
2022-10-01T19:39:19.731Z,88953.25
2022-10-01T19:42:04.411Z,88948.38
2022-10-01T19:44:49.130Z,88959.06
2022-10-01T19:47:33.955Z,88963.59
2022-10-01T19:50:18.697Z,88960.66
2022-10-01T19:53:03.435Z,88978.44
2022-10-01T19:55:48.342Z,88974.09
2022-10-01T19:58:33.140Z,88992.94
2022-10-01T20:01:18.016Z,88984.56
2022-10-01T20:04:02.835Z,88983.88
2022-10-01T20:06:47.861Z,89006.53
2022-10-01T20:09:32.622Z,88995.34
2022-10-01T20:12:17.497Z,88990.09
2022-10-01T20:15:02.202Z,89000.25
2022-10-01T20:17:47.047Z,88995.72
2022-10-01T20:20:31.730Z,88983.81
2022-10-01T20:23:16.502Z,88991.88
2022-10-01T20:26:01.408Z,88980.69
2022-10-01T20:28:46.033Z,88983.31
2022-10-01T20:31:30.776Z,88972.19
2022-10-01T20:34:15.422Z,88979.34
2022-10-01T20:37:00.129Z,88973.25
2022-10-01T20:39:44.931Z,88967.66
2022-10-01T20:42:29.650Z,88970.28
2022-10-01T20:45:14.368Z,88977.09
2022-10-01T20:47:59.192Z,89003.47
2022-10-01T20:50:43.883Z,89011.47
2022-10-01T20:53:28.701Z,89017.94
2022-10-01T20:56:13.391Z,89016.34
2022-10-01T20:58:58.162Z,89001.53
2022-10-01T21:01:43.001Z,89005.88
2022-10-01T21:04:27.755Z,89018.28
2022-10-01T21:07:12.614Z,89006.78
2022-10-01T21:09:57.311Z,89005.03
2022-10-01T21:12:42.155Z,89020.75
2022-10-01T21:15:26.737Z,89010.97
2022-10-01T21:18:11.608Z,89013.22
2022-10-01T21:20:56.247Z,89009.22
2022-10-01T21:23:41.050Z,89011.84
2022-10-01T21:26:25.787Z,89003.16
2022-10-01T21:29:10.437Z,88999.16
2022-10-01T21:31:55.307Z,89009.13
2022-10-01T21:34:40.082Z,89023.06
2022-10-01T21:37:24.942Z,89016.94
2022-10-01T21:40:09.655Z,89010.81
2022-10-01T21:42:54.437Z,89008.53
2022-10-01T21:45:39.354Z,89032.09
2022-10-01T21:48:24.482Z,89028.97
2022-10-01T21:51:09.318Z,89027.88
2022-10-01T21:53:54.139Z,89022.16
2022-10-01T21:56:39.179Z,89036.97
2022-10-01T21:59:24.367Z,89045.34
2022-10-01T22:02:09.398Z,89055.66
2022-10-01T22:04:53.926Z,89054.31
2022-10-01T22:07:38.839Z,89063.38
2022-10-01T22:10:23.635Z,89069.16
2022-10-01T22:13:08.320Z,89071.56
2022-10-01T22:15:53.090Z,89074.38
2022-10-01T22:18:37.860Z,89070.00
2022-10-01T22:21:22.786Z,89066.38
2022-10-01T22:24:07.598Z,89078.44
2022-10-01T22:26:52.341Z,89071.34
2022-10-01T22:29:37.072Z,89060.34
2022-10-01T22:32:21.856Z,89079.69
2022-10-01T22:35:06.518Z,89069.09
2022-10-01T22:37:51.323Z,89076.94
2022-10-01T22:40:35.989Z,89088.00
2022-10-01T22:43:20.834Z,89088.00
2022-10-01T22:46:05.609Z,89098.78
2022-10-01T22:48:50.295Z,89100.19
2022-10-01T22:51:35.059Z,89116.81
2022-10-01T22:54:19.724Z,89106.31
2022-10-01T22:57:04.617Z,89107.53
2022-10-01T22:59:49.263Z,89095.19
2022-10-01T23:02:33.973Z,89095.19
2022-10-01T23:05:18.716Z,89102.91
2022-10-01T23:08:03.508Z,89101.72
2022-10-01T23:10:48.162Z,89101.88
2022-10-01T23:13:33.014Z,89105.53
2022-10-01T23:16:17.802Z,89114.41
2022-10-01T23:19:02.515Z,89121.38
2022-10-01T23:21:47.180Z,89127.50
2022-10-01T23:24:31.859Z,89137.09
2022-10-01T23:27:16.624Z,89143.44
2022-10-01T23:30:01.458Z,89144.69
2022-10-01T23:32:46.232Z,89156.06
2022-10-01T23:35:31.026Z,89142.44
2022-10-01T23:38:15.673Z,89135.59
2022-10-01T23:41:00.272Z,89131.06
2022-10-01T23:43:45.155Z,89120.09
2022-10-01T23:46:29.924Z,89103.13
2022-10-01T23:49:14.699Z,89108.38
2022-10-01T23:51:59.512Z,89098.09
2022-10-01T23:54:44.191Z,89094.78
2022-10-01T23:57:28.892Z,89102.00
